createdAt,value
2017-08-28T00:02:09.844Z,12.00
2017-08-28T00:04:37.926Z,12.47
2017-08-28T00:07:06.018Z,13.07
2017-08-28T00:09:34.092Z,12.80
2017-08-28T00:12:02.177Z,12.67
2017-08-28T00:14:30.253Z,12.50
2017-08-28T00:16:58.339Z,10.57
2017-08-28T00:19:26.418Z,11.40
2017-08-28T00:21:54.496Z,11.77
2017-08-28T00:24:22.888Z,11.97
2017-08-28T00:26:50.960Z,12.00
2017-08-28T00:29:19.684Z,12.33
2017-08-28T00:31:47.759Z,12.50
2017-08-28T00:34:15.843Z,11.67
2017-08-28T00:36:43.922Z,11.70
2017-08-28T00:39:12.015Z,11.90
2017-08-28T00:41:40.092Z,11.80
2017-08-28T00:44:08.192Z,13.50
2017-08-28T00:46:36.259Z,12.20
2017-08-28T00:49:04.343Z,12.97
2017-08-28T00:51:32.431Z,13.73
2017-08-28T00:54:00.507Z,12.97
2017-08-28T00:56:28.587Z,12.33
2017-08-28T00:58:56.660Z,12.90
2017-08-28T01:01:24.764Z,14.43
2017-08-28T01:03:52.840Z,13.00
2017-08-28T01:06:20.928Z,12.60
2017-08-28T01:08:48.994Z,11.83
2017-08-28T01:11:17.267Z,12.23
2017-08-28T01:13:45.346Z,12.30
2017-08-28T01:16:13.436Z,12.50
2017-08-28T01:18:41.511Z,11.47
2017-08-28T01:21:09.593Z,11.60
2017-08-28T01:23:37.687Z,11.80
2017-08-28T01:26:05.771Z,10.83
2017-08-28T01:28:33.860Z,13.40
2017-08-28T01:31:01.926Z,12.13
2017-08-28T01:33:30.018Z,12.27
2017-08-28T01:35:58.088Z,11.10
2017-08-28T01:38:26.167Z,11.43
2017-08-28T01:40:54.243Z,9.63
2017-08-28T01:43:22.327Z,11.10
2017-08-28T01:45:50.425Z,12.40
2017-08-28T01:48:18.512Z,11.40
2017-08-28T01:50:46.591Z,11.27
2017-08-28T01:53:14.680Z,11.90
2017-08-28T01:55:42.746Z,10.67
2017-08-28T01:58:10.824Z,11.77
2017-08-28T02:00:38.912Z,10.77
2017-08-28T02:03:06.989Z,10.83
2017-08-28T02:05:35.089Z,11.10
2017-08-28T02:08:03.197Z,11.30
2017-08-28T02:10:31.280Z,11.57
2017-08-28T02:12:59.371Z,11.30
2017-08-28T02:15:27.597Z,11.07
2017-08-28T02:17:55.679Z,10.97
2017-08-28T02:20:23.759Z,11.03
2017-08-28T02:22:51.829Z,9.90
2017-08-28T02:25:19.924Z,11.20
2017-08-28T02:27:48.003Z,11.67
2017-08-28T02:30:16.083Z,12.13
2017-08-28T02:32:44.163Z,10.87
2017-08-28T02:35:12.247Z,11.03
2017-08-28T02:37:40.344Z,10.90
2017-08-28T02:40:08.424Z,11.70
2017-08-28T02:42:36.547Z,10.70
2017-08-28T02:45:04.701Z,13.30
2017-08-28T02:47:32.804Z,11.70
2017-08-28T02:50:00.888Z,10.63
2017-08-28T02:52:28.980Z,13.20
2017-08-28T02:54:57.048Z,11.77
2017-08-28T02:57:25.136Z,12.57
2017-08-28T02:59:53.237Z,11.27
2017-08-28T03:02:21.335Z,11.57
2017-08-28T03:04:49.413Z,11.40
2017-08-28T03:07:17.509Z,12.80
2017-08-28T03:09:45.596Z,14.67
2017-08-28T03:12:13.679Z,11.83
2017-08-28T03:14:41.765Z,11.10
2017-08-28T03:17:09.861Z,12.80
2017-08-28T03:19:37.919Z,11.97
2017-08-28T03:22:06.024Z,11.50
2017-08-28T03:24:34.095Z,11.13
2017-08-28T03:27:02.166Z,11.07
2017-08-28T03:29:30.296Z,11.23
2017-08-28T03:31:58.366Z,9.03
2017-08-28T03:34:26.500Z,10.03
2017-08-28T03:36:54.584Z,10.57
2017-08-28T03:39:22.672Z,9.07
2017-08-28T03:41:50.752Z,10.50
2017-08-28T03:44:18.838Z,10.10
2017-08-28T03:46:46.915Z,10.77
2017-08-28T03:49:14.986Z,10.20
2017-08-28T03:51:43.059Z,11.23
2017-08-28T03:54:11.139Z,10.20
2017-08-28T03:56:39.223Z,11.10
2017-08-28T03:59:07.304Z,13.13
2017-08-28T04:01:35.495Z,17.27
2017-08-28T04:04:03.568Z,12.77
2017-08-28T04:06:31.659Z,11.27
2017-08-28T04:08:59.740Z,10.93
2017-08-28T04:11:27.820Z,11.83
2017-08-28T04:13:55.912Z,10.10
2017-08-28T04:16:24.011Z,11.50
2017-08-28T04:18:52.091Z,11.23
2017-08-28T04:21:20.180Z,11.20
2017-08-28T04:23:48.248Z,11.00
2017-08-28T04:26:16.336Z,10.17
2017-08-28T04:28:44.424Z,11.83
2017-08-28T04:31:12.497Z,10.77
2017-08-28T04:33:40.571Z,10.47
2017-08-28T04:36:08.644Z,11.10
2017-08-28T04:38:36.732Z,10.50
2017-08-28T04:41:04.811Z,10.03
2017-08-28T04:43:32.897Z,9.87
2017-08-28T04:46:00.999Z,11.07
2017-08-28T04:48:29.070Z,9.37
2017-08-28T04:50:57.143Z,11.10
2017-08-28T04:53:25.236Z,10.40
2017-08-28T04:55:53.312Z,10.80
2017-08-28T04:58:21.392Z,10.00
2017-08-28T05:00:49.532Z,13.67
2017-08-28T05:03:17.623Z,13.40
2017-08-28T05:05:45.700Z,10.63
2017-08-28T05:08:13.779Z,11.40
2017-08-28T05:10:41.861Z,11.47
2017-08-28T05:13:09.935Z,11.60
2017-08-28T05:15:38.011Z,10.87
2017-08-28T05:18:06.085Z,12.47
2017-08-28T05:20:34.196Z,11.97
2017-08-28T05:23:02.267Z,10.10
2017-08-28T05:25:30.352Z,10.37
2017-08-28T05:27:58.419Z,10.40
2017-08-28T05:30:26.511Z,10.40
2017-08-28T05:32:54.580Z,10.10
2017-08-28T05:35:22.664Z,10.10
2017-08-28T05:37:50.735Z,10.00
2017-08-28T05:40:18.840Z,10.50
2017-08-28T05:42:46.919Z,11.00
2017-08-28T05:45:15.023Z,10.77
2017-08-28T05:47:43.090Z,10.60
2017-08-28T05:50:11.159Z,10.90
2017-08-28T05:52:39.339Z,9.90
2017-08-28T05:55:07.420Z,10.33
2017-08-28T05:57:35.499Z,11.80
2017-08-28T06:00:03.603Z,9.27
2017-08-28T06:02:31.747Z,8.80
2017-08-28T06:04:59.825Z,10.00
2017-08-28T06:07:27.925Z,9.20
2017-08-28T06:09:55.995Z,8.70
2017-08-28T06:12:24.088Z,7.90
2017-08-28T06:14:52.156Z,9.27
2017-08-28T06:17:20.299Z,8.43
2017-08-28T06:19:48.445Z,8.10
2017-08-28T06:22:16.543Z,9.30
2017-08-28T06:24:44.644Z,8.70
2017-08-28T06:27:12.741Z,9.90
2017-08-28T06:29:40.837Z,10.40
2017-08-28T06:32:08.925Z,8.80
2017-08-28T06:34:37.052Z,9.30
2017-08-28T06:37:05.175Z,8.60
2017-08-28T06:39:33.285Z,9.20
2017-08-28T06:42:01.369Z,9.60
2017-08-28T06:44:29.461Z,9.50
2017-08-28T06:46:57.540Z,10.80
2017-08-28T06:49:25.628Z,9.40
2017-08-28T06:51:53.714Z,8.90
2017-08-28T06:54:21.819Z,8.30
2017-08-28T06:56:49.936Z,9.43
2017-08-28T06:59:18.005Z,8.77
2017-08-28T07:01:46.078Z,16.07
2017-08-28T07:04:14.222Z,11.43
2017-08-28T07:06:42.303Z,9.70
2017-08-28T07:09:10.371Z,13.20
2017-08-28T07:11:38.452Z,9.70
2017-08-28T07:14:06.520Z,9.70
2017-08-28T07:16:34.611Z,9.63
2017-08-28T07:19:02.690Z,9.00
2017-08-28T07:21:30.759Z,9.00
2017-08-28T07:23:58.840Z,7.70
2017-08-28T07:26:26.912Z,10.07
2017-08-28T07:28:54.995Z,11.87
2017-08-28T07:31:23.068Z,11.43
2017-08-28T07:33:51.240Z,8.97
2017-08-28T07:36:19.315Z,8.33
2017-08-28T07:38:47.404Z,10.07
2017-08-28T07:41:15.475Z,8.70
2017-08-28T07:43:43.547Z,10.90
2017-08-28T07:46:11.644Z,9.47
2017-08-28T07:48:39.718Z,9.60
2017-08-28T07:51:07.800Z,10.30
2017-08-28T07:53:35.868Z,9.60
2017-08-28T07:56:03.956Z,10.93
2017-08-28T07:58:32.052Z,9.63
2017-08-28T08:01:00.123Z,10.40
2017-08-28T08:03:28.200Z,11.00
2017-08-28T08:05:57.361Z,9.63
2017-08-28T08:08:25.466Z,9.27
2017-08-28T08:10:53.555Z,8.23
2017-08-28T08:13:21.745Z,10.70
2017-08-28T08:15:49.820Z,9.10
2017-08-28T08:18:17.899Z,9.60
2017-08-28T08:20:45.979Z,8.60
2017-08-28T08:23:14.063Z,10.03
2017-08-28T08:25:42.136Z,9.03
2017-08-28T08:28:10.219Z,9.57
2017-08-28T08:30:38.283Z,10.60
2017-08-28T08:33:06.359Z,9.13
2017-08-28T08:35:34.427Z,8.87
2017-08-28T08:38:02.518Z,8.03
2017-08-28T08:40:30.580Z,8.77
2017-08-28T08:42:58.675Z,9.37
2017-08-28T08:45:26.796Z,9.03
2017-08-28T08:47:54.905Z,9.20
2017-08-28T08:50:23.024Z,9.33
2017-08-28T08:52:51.119Z,8.90
2017-08-28T08:55:19.234Z,12.03
2017-08-28T08:57:47.349Z,11.27
2017-08-28T09:00:15.491Z,10.97
2017-08-28T09:02:43.575Z,9.97
2017-08-28T09:05:12.460Z,9.60
2017-08-28T09:07:40.556Z,9.80
2017-08-28T09:10:08.652Z,8.73
2017-08-28T09:12:36.743Z,9.40
2017-08-28T09:15:04.845Z,9.00
2017-08-28T09:17:32.975Z,10.13
2017-08-28T09:20:01.088Z,8.23
2017-08-28T09:22:29.191Z,7.23
2017-08-28T09:24:57.368Z,8.90
2017-08-28T09:27:25.518Z,8.30
2017-08-28T09:29:53.617Z,8.23
2017-08-28T09:32:21.733Z,8.43
2017-08-28T09:34:51.868Z,8.67
2017-08-28T09:37:19.999Z,8.87
2017-08-28T09:39:48.098Z,7.33
2017-08-28T09:42:16.204Z,8.10
2017-08-28T09:44:44.400Z,8.33
2017-08-28T09:47:12.514Z,8.20
2017-08-28T09:49:40.685Z,9.30
2017-08-28T09:52:08.878Z,9.40
2017-08-28T09:54:36.997Z,9.60
2017-08-28T09:57:05.096Z,10.47
2017-08-28T09:59:33.234Z,10.10
2017-08-28T10:02:01.371Z,10.87
2017-08-28T10:04:29.510Z,9.87
2017-08-28T10:06:57.613Z,13.20
2017-08-28T10:09:25.742Z,10.17
2017-08-28T10:11:53.885Z,9.77
2017-08-28T10:14:22.057Z,9.73
2017-08-28T10:16:50.208Z,9.10
2017-08-28T10:19:18.397Z,10.03
2017-08-28T10:21:46.528Z,8.00
2017-08-28T10:24:14.630Z,8.50
2017-08-28T10:26:42.221Z,12.17
2017-08-28T10:29:10.356Z,10.80
2017-08-28T10:31:38.520Z,9.23
2017-08-28T10:34:06.640Z,9.70
2017-08-28T10:36:34.757Z,8.23
2017-08-28T10:39:02.880Z,9.63
2017-08-28T10:41:30.998Z,8.70
2017-08-28T10:43:59.133Z,10.10
2017-08-28T10:46:27.258Z,8.73
2017-08-28T10:48:55.385Z,9.03
2017-08-28T10:51:23.498Z,8.63
2017-08-28T10:53:52.320Z,9.10
2017-08-28T10:56:20.449Z,8.73
2017-08-28T10:58:48.632Z,9.33
2017-08-28T11:01:16.733Z,9.57
2017-08-28T11:03:44.914Z,9.13
2017-08-28T11:06:13.107Z,9.73
2017-08-28T11:08:41.249Z,9.00
2017-08-28T11:11:09.412Z,9.07
2017-08-28T11:13:47.781Z,8.80
2017-08-28T11:16:16.677Z,9.20
2017-08-28T11:18:44.836Z,9.07
2017-08-28T11:21:13.057Z,10.07
2017-08-28T11:23:41.192Z,11.13
2017-08-28T11:26:09.275Z,9.57
2017-08-28T11:28:38.137Z,9.30
2017-08-28T11:31:06.238Z,10.30
2017-08-28T11:33:34.324Z,9.17
2017-08-28T11:36:02.415Z,10.40
2017-08-28T11:38:30.506Z,9.80
2017-08-28T11:40:58.597Z,9.73
2017-08-28T11:43:26.708Z,10.40
2017-08-28T11:45:54.803Z,9.80
2017-08-28T11:48:22.895Z,9.40
2017-08-28T11:50:50.988Z,9.33
2017-08-28T11:53:19.091Z,10.10
2017-08-28T11:55:47.203Z,9.13
2017-08-28T11:58:15.296Z,9.23
2017-08-28T12:00:43.409Z,9.37
2017-08-28T12:03:11.500Z,9.60
2017-08-28T12:05:39.835Z,8.33
2017-08-28T12:08:07.945Z,9.40
2017-08-28T12:10:36.041Z,8.10
2017-08-28T12:13:04.172Z,10.43
2017-08-28T12:15:32.302Z,11.47
2017-08-28T12:18:00.382Z,8.93
2017-08-28T12:20:28.488Z,8.70
2017-08-28T12:22:56.567Z,7.80
2017-08-28T12:25:24.667Z,8.33
2017-08-28T12:27:52.752Z,9.63
2017-08-28T12:30:20.850Z,9.57
2017-08-28T12:32:48.936Z,7.80
2017-08-28T12:35:17.034Z,8.10
2017-08-28T12:37:45.167Z,7.10
2017-08-28T12:40:13.287Z,7.03
2017-08-28T12:42:41.372Z,8.23
2017-08-28T12:45:09.460Z,8.40
2017-08-28T12:47:37.580Z,7.70
2017-08-28T12:50:05.676Z,6.67
2017-08-28T12:52:33.783Z,8.73
2017-08-28T12:55:01.865Z,6.97
2017-08-28T12:57:29.968Z,8.47
2017-08-28T12:59:58.060Z,6.63
2017-08-28T13:02:26.157Z,7.83
2017-08-28T13:04:54.248Z,6.30
2017-08-28T13:07:22.349Z,6.63
2017-08-28T13:09:50.425Z,8.23
2017-08-28T13:12:18.537Z,7.47
2017-08-28T13:14:46.626Z,7.47
2017-08-28T13:17:14.703Z,9.57
2017-08-28T13:19:42.825Z,6.27
2017-08-28T13:22:10.913Z,7.20
2017-08-28T13:24:39.011Z,6.30
2017-08-28T13:27:07.101Z,7.60
2017-08-28T13:29:35.196Z,6.87
2017-08-28T13:32:03.269Z,6.50
2017-08-28T13:34:31.360Z,6.87
2017-08-28T13:36:59.458Z,6.20
2017-08-28T13:39:27.564Z,6.40
2017-08-28T13:41:55.654Z,6.27
2017-08-28T13:44:23.751Z,5.50
2017-08-28T13:46:51.841Z,5.93
2017-08-28T13:49:20.030Z,5.57
2017-08-28T13:51:48.132Z,6.27
2017-08-28T13:54:16.275Z,5.57
2017-08-28T13:56:44.389Z,6.30
2017-08-28T13:59:12.476Z,5.40
2017-08-28T14:01:40.582Z,5.30
2017-08-28T14:04:08.698Z,5.57
2017-08-28T14:06:36.810Z,8.80
2017-08-28T14:09:04.921Z,5.00
2017-08-28T14:11:32.989Z,6.47
2017-08-28T14:14:01.085Z,5.03
2017-08-28T14:16:29.172Z,7.27
2017-08-28T14:18:57.260Z,4.77
2017-08-28T14:21:25.336Z,5.17
2017-08-28T14:23:53.436Z,5.43
2017-08-28T14:26:21.528Z,4.50
2017-08-28T14:28:49.657Z,4.33
2017-08-28T14:31:17.733Z,7.00
2017-08-28T14:33:45.830Z,5.07
2017-08-28T14:36:14.009Z,6.23
2017-08-28T14:38:42.112Z,5.93
2017-08-28T14:41:10.217Z,5.23
2017-08-28T14:43:38.300Z,5.20
2017-08-28T14:46:06.428Z,4.67
2017-08-28T14:48:35.138Z,4.77
2017-08-28T14:51:03.224Z,4.40
2017-08-28T14:53:31.313Z,4.70
2017-08-28T14:55:59.449Z,5.03
2017-08-28T14:58:27.529Z,4.73
2017-08-28T15:00:55.675Z,5.30
2017-08-28T15:03:23.764Z,6.07
2017-08-28T15:05:51.850Z,5.43
2017-08-28T15:08:19.957Z,4.33
2017-08-28T15:10:48.054Z,4.70
2017-08-28T15:13:16.156Z,5.43
2017-08-28T15:15:44.236Z,4.07
2017-08-28T15:18:12.327Z,4.60
2017-08-28T15:20:40.430Z,5.07
2017-08-28T15:23:08.519Z,5.43
2017-08-28T15:25:36.613Z,5.57
2017-08-28T15:28:04.764Z,4.90
2017-08-28T15:30:32.858Z,5.03
2017-08-28T15:33:01.002Z,5.03
2017-08-28T15:35:29.093Z,5.13
2017-08-28T15:37:57.275Z,5.20
2017-08-28T15:40:25.364Z,5.83
2017-08-28T15:42:53.515Z,4.80
2017-08-28T15:45:21.670Z,4.70
2017-08-28T15:47:49.751Z,5.90
2017-08-28T15:50:17.840Z,5.30
2017-08-28T15:52:46.496Z,5.07
2017-08-28T15:57:49.750Z,5.37
2017-08-28T16:00:17.844Z,6.17
2017-08-28T16:02:45.936Z,6.97
2017-08-28T16:05:14.044Z,4.70
2017-08-28T16:07:42.133Z,5.57
2017-08-28T16:10:10.231Z,5.40
2017-08-28T16:12:38.342Z,5.00
2017-08-28T16:15:06.424Z,5.90
2017-08-28T16:17:34.517Z,5.07
2017-08-28T16:20:02.601Z,5.77
2017-08-28T16:22:30.700Z,9.73
2017-08-28T16:24:58.787Z,6.37
2017-08-28T16:27:26.881Z,6.23
2017-08-28T16:29:54.968Z,6.20
2017-08-28T16:32:23.180Z,6.17
2017-08-28T16:34:51.255Z,5.47
2017-08-28T16:37:19.373Z,5.37
2017-08-28T16:39:47.469Z,5.10
2017-08-28T16:42:15.584Z,4.90
2017-08-28T16:44:45.692Z,5.13
2017-08-28T16:47:13.772Z,5.57
2017-08-28T16:49:41.861Z,5.70
2017-08-28T16:52:09.977Z,5.07
2017-08-28T16:54:38.123Z,6.27
2017-08-28T16:57:06.211Z,6.10
2017-08-28T16:59:34.566Z,5.33
2017-08-28T17:02:02.653Z,4.70
2017-08-28T17:04:30.749Z,5.53
2017-08-28T17:06:58.877Z,5.93
2017-08-28T17:09:27.013Z,5.80
2017-08-28T17:11:55.101Z,4.80
2017-08-28T17:14:23.184Z,5.23
2017-08-28T17:16:51.308Z,6.03
2017-08-28T17:19:19.387Z,5.00
2017-08-28T17:21:47.489Z,4.93
2017-08-28T17:24:15.609Z,4.80
2017-08-28T17:26:43.705Z,7.60
2017-08-28T17:29:12.469Z,5.73
2017-08-28T17:31:40.561Z,7.10
2017-08-28T17:34:08.650Z,7.17
2017-08-28T17:36:37.586Z,6.20
2017-08-28T17:39:05.648Z,5.90
2017-08-28T17:41:33.742Z,4.40
2017-08-28T17:44:01.835Z,4.50
2017-08-28T17:46:29.933Z,5.00
2017-08-28T17:48:58.049Z,4.97
2017-08-28T17:51:26.925Z,4.57
2017-08-28T17:53:55.024Z,4.40
2017-08-28T17:56:23.133Z,4.90
2017-08-28T17:58:51.223Z,7.03
2017-08-28T18:01:19.315Z,4.40
2017-08-28T18:03:47.472Z,4.40
2017-08-28T18:06:15.540Z,4.10
2017-08-28T18:08:43.630Z,6.03
2017-08-28T18:11:11.829Z,5.03
2017-08-28T18:13:39.945Z,5.20
2017-08-28T18:16:08.073Z,5.20
2017-08-28T18:18:46.216Z,4.80
2017-08-28T18:21:14.279Z,5.40
2017-08-28T18:23:42.357Z,5.83
2017-08-28T18:26:10.452Z,4.57
2017-08-28T18:28:38.698Z,5.80
2017-08-28T18:31:06.822Z,4.90
2017-08-28T18:33:34.909Z,5.63
2017-08-28T18:36:03.018Z,14.47
2017-08-28T18:38:31.088Z,6.27
2017-08-28T18:40:59.194Z,5.90
2017-08-28T18:43:27.267Z,5.60
2017-08-28T18:45:55.976Z,6.27
2017-08-28T18:48:24.051Z,5.53
2017-08-28T18:50:52.149Z,4.97
2017-08-28T18:53:20.215Z,6.50
2017-08-28T18:55:48.274Z,5.97
2017-08-28T18:58:16.352Z,10.40
2017-08-28T19:00:44.421Z,7.30
2017-08-28T19:03:12.496Z,7.43
2017-08-28T19:05:40.559Z,6.73
2017-08-28T19:08:08.639Z,6.77
2017-08-28T19:10:36.712Z,8.63
2017-08-28T19:13:04.786Z,9.23
2017-08-28T19:15:32.855Z,7.90
2017-08-28T19:18:00.932Z,9.87
2017-08-28T19:20:29.008Z,6.83
2017-08-28T19:22:57.088Z,12.60
2017-08-28T19:25:25.188Z,8.30
2017-08-28T19:27:53.260Z,7.00
2017-08-28T19:30:21.343Z,6.00
2017-08-28T19:32:49.415Z,7.17
2017-08-28T19:35:17.492Z,6.03
2017-08-28T19:37:45.564Z,7.17
2017-08-28T19:40:13.639Z,6.00
2017-08-28T19:42:41.723Z,7.03
2017-08-28T19:45:09.815Z,6.87
2017-08-28T19:47:37.887Z,8.23
2017-08-28T19:50:05.975Z,7.07
2017-08-28T19:52:34.081Z,7.30
2017-08-28T19:55:02.155Z,6.40
2017-08-28T19:57:30.232Z,5.73
2017-08-28T19:59:58.323Z,5.97
2017-08-28T20:02:31.960Z,5.47
2017-08-28T20:05:00.031Z,6.30
2017-08-28T20:07:28.130Z,5.70
2017-08-28T20:09:56.190Z,5.33
2017-08-28T20:12:24.258Z,6.43
2017-08-28T20:14:53.175Z,6.37
2017-08-28T20:17:21.249Z,6.30
2017-08-28T20:19:49.336Z,7.20
2017-08-28T20:22:17.420Z,6.50
2017-08-28T20:24:45.483Z,6.00
2017-08-28T20:27:13.576Z,6.37
2017-08-28T20:29:41.647Z,7.70
2017-08-28T20:32:09.720Z,7.70
2017-08-28T20:34:37.888Z,8.33
2017-08-28T20:37:06.940Z,8.83
2017-08-28T20:39:35.083Z,9.03
2017-08-28T20:42:03.198Z,8.13
2017-08-28T20:44:31.307Z,8.23
2017-08-28T20:46:59.553Z,8.80
2017-08-28T20:49:27.707Z,8.27
2017-08-28T20:51:55.799Z,8.97
2017-08-28T20:54:24.000Z,10.57
2017-08-28T20:56:52.090Z,11.40
2017-08-28T20:59:20.204Z,12.60
2017-08-28T21:01:48.296Z,10.53
2017-08-28T21:04:16.375Z,11.97
2017-08-28T21:06:44.465Z,10.30
2017-08-28T21:09:12.535Z,10.13
2017-08-28T21:11:40.620Z,9.27
2017-08-28T21:14:08.770Z,10.90
2017-08-28T21:16:36.930Z,8.93
2017-08-28T21:19:05.256Z,10.97
2017-08-28T21:21:33.351Z,14.97
2017-08-28T21:24:01.450Z,14.10
2017-08-28T21:26:29.580Z,13.87
2017-08-28T21:28:57.656Z,13.50
2017-08-28T21:31:25.756Z,13.83
2017-08-28T21:33:53.876Z,14.27
2017-08-28T21:36:21.971Z,17.47
2017-08-28T21:38:50.088Z,15.90
2017-08-28T21:41:18.182Z,11.93
2017-08-28T21:43:46.311Z,11.20
2017-08-28T21:46:14.400Z,9.50
2017-08-28T21:48:42.499Z,10.43
2017-08-28T21:51:10.593Z,10.40
2017-08-28T21:53:38.697Z,9.80
2017-08-28T21:56:06.789Z,12.70
2017-08-28T21:58:34.893Z,10.43
2017-08-28T22:01:02.978Z,11.33
2017-08-28T22:03:31.322Z,9.57
2017-08-28T22:05:59.412Z,9.30
2017-08-28T22:08:27.491Z,8.13
2017-08-28T22:10:55.571Z,9.63
2017-08-28T22:13:23.783Z,8.53
2017-08-28T22:15:51.899Z,10.50
2017-08-28T22:18:19.991Z,9.87
2017-08-28T22:20:48.091Z,9.90
2017-08-28T22:23:16.196Z,9.30
2017-08-28T22:25:45.395Z,9.00
2017-08-28T22:28:13.512Z,9.97
2017-08-28T22:30:41.647Z,9.33
2017-08-28T22:33:09.789Z,11.27
2017-08-28T22:35:37.900Z,12.13
2017-08-28T22:38:05.984Z,10.50
2017-08-28T22:40:34.108Z,12.63
2017-08-28T22:43:02.243Z,11.93
2017-08-28T22:45:30.360Z,11.13
2017-08-28T22:47:58.833Z,10.87
2017-08-28T22:50:26.914Z,11.90
2017-08-28T22:52:55.025Z,10.03
2017-08-28T22:55:23.749Z,10.70
2017-08-28T22:57:51.842Z,12.00
2017-08-28T23:00:19.932Z,11.60
2017-08-28T23:02:48.034Z,10.50
2017-08-28T23:05:16.125Z,11.03
2017-08-28T23:07:44.233Z,12.00
2017-08-28T23:10:12.328Z,11.17
2017-08-28T23:12:40.445Z,10.47
2017-08-28T23:15:08.540Z,11.10
2017-08-28T23:17:36.617Z,10.60
2017-08-28T23:20:04.721Z,13.60
2017-08-28T23:22:32.835Z,10.77
2017-08-28T23:25:00.940Z,10.77
2017-08-28T23:27:29.027Z,9.93
2017-08-28T23:29:57.145Z,11.10
2017-08-28T23:32:25.244Z,10.23
2017-08-28T23:34:53.422Z,8.73
2017-08-28T23:37:21.624Z,10.17
2017-08-28T23:39:49.709Z,11.73
2017-08-28T23:42:17.814Z,11.87
2017-08-28T23:44:45.900Z,9.63
2017-08-28T23:47:13.992Z,10.03
2017-08-28T23:49:42.118Z,10.73
2017-08-28T23:52:10.212Z,9.97
2017-08-28T23:54:38.299Z,9.90
2017-08-28T23:57:06.392Z,8.90
2017-08-28T23:59:34.506Z,8.77
